Time;durP1;ratioP1;P1;durP2;ratioP2;P2;SDS_P1;SDS_P2;PMS_P1;PMS_P2;Temp;Humidity;BMP_temperature;BMP_pressure;BME280_temperature;BME280_humidity;BME280_pressure;Samples;Min_cycle;Max_cycle;Signal;HPM_P1;HPM_P2
2022/05/20 00:01:08;;;;;;;5.53;3.80;;;;;;;19.68;100.00;96998.66;5066584;28;20596;-48
2022/05/20 00:03:37;;;;;;;6.90;3.88;;;;;;;19.70;100.00;97001.16;5066283;28;20072;-50
2022/05/20 00:06:05;;;;;;;6.32;3.90;;;;;;;19.56;100.00;97002.81;5066198;28;20064;-49
2022/05/20 00:08:35;;;;;;;5.97;3.90;;;;;;;19.69;100.00;97011.03;5067156;28;20090;-51
2022/05/20 00:11:03;;;;;;;7.73;3.63;;;;;;;19.54;100.00;97008.34;5045454;28;20076;-46
2022/05/20 00:13:31;;;;;;;7.82;4.03;;;;;;;19.58;100.00;97015.00;5066058;28;20071;-49
2022/05/20 00:16:00;;;;;;;5.03;3.80;;;;;;;19.64;100.00;97022.28;5065682;28;20072;-45
2022/05/20 00:18:28;;;;;;;5.22;4.20;;;;;;;19.29;100.00;97025.72;5066741;28;20084;-46
2022/05/20 00:20:59;;;;;;;6.28;4.10;;;;;;;19.31;100.00;97021.03;5062573;28;20075;-46
2022/05/20 00:23:27;;;;;;;8.05;4.22;;;;;;;19.32;100.00;97015.47;5064287;28;20064;-48
2022/05/20 00:25:57;;;;;;;4.93;4.13;;;;;;;19.38;100.00;97022.75;5061665;28;20470;-46
2022/05/20 00:28:28;;;;;;;8.82;4.85;;;;;;;19.32;100.00;97022.69;5059684;28;20064;-48
2022/05/20 00:30:58;;;;;;;;;;;;;;;19.04;100.00;97017.97;5066505;28;20075;-48
2022/05/20 00:33:27;;;;;;;8.38;4.38;;;;;;;19.28;100.00;97024.06;5066580;28;19951;-44
2022/05/20 00:35:56;;;;;;;6.32;4.40;;;;;;;19.34;100.00;97029.50;5065618;28;20075;-47
2022/05/20 00:38:24;;;;;;;11.52;5.05;;;;;;;19.23;100.00;97029.94;5065935;28;20067;-51
2022/05/20 00:40:54;;;;;;;6.78;4.50;;;;;;;19.23;100.00;97023.78;5060684;28;20057;-45
2022/05/20 00:43:29;;;;;;;7.82;4.80;;;;;;;19.20;100.00;97027.66;5065163;28;20073;-50
2022/05/20 00:46:02;;;;;;;15.98;4.72;;;;;;;19.17;100.00;97025.38;5060746;28;20091;-46
2022/05/20 00:48:31;;;;;;;4.90;4.40;;;;;;;19.00;100.00;97019.38;5069734;28;20577;-46
2022/05/20 00:51:02;;;;;;;7.18;4.75;;;;;;;19.17;100.00;97018.16;5062416;28;20064;-47
2022/05/20 00:53:32;;;;;;;;;;;;;;;18.96;100.00;97015.41;5059761;28;20072;-48
2022/05/20 00:56:00;;;;;;;5.97;4.70;;;;;;;18.96;100.00;97015.41;5062270;28;19964;-46
2022/05/20 00:58:30;;;;;;;6.15;4.47;;;;;;;18.87;100.00;97011.97;5063231;28;20068;-46
2022/05/20 01:01:00;;;;;;;7.80;4.50;;;;;;;18.97;100.00;97012.53;5061568;28;20091;-49
2022/05/20 01:03:30;;;;;;;5.45;4.30;;;;;;;18.96;100.00;97018.09;5068844;28;20064;-48
2022/05/20 01:05:59;;;;;;;8.23;5.00;;;;;;;19.07;100.00;97014.94;5064664;28;20064;-49
2022/05/20 01:08:29;;;;;;;5.18;4.63;;;;;;;19.05;100.00;97013.47;5068273;28;20064;-50
2022/05/20 01:10:58;;;;;;;8.77;4.55;;;;;;;18.96;100.00;97010.06;5069242;28;20530;-46
2022/05/20 01:13:27;;;;;;;7.68;5.00;;;;;;;18.86;100.00;97005.00;5067381;28;20067;-46
2022/05/20 01:16:02;;;;;;;7.57;4.55;;;;;;;18.79;100.00;97006.72;5069038;28;20084;-49
2022/05/20 01:18:34;;;;;;;7.22;4.90;;;;;;;18.86;100.00;96998.81;5069551;28;20131;-50
2022/05/20 01:21:03;;;;;;;6.78;4.88;;;;;;;18.81;100.00;96994.00;5067699;28;20072;-48
2022/05/20 01:23:34;;;;;;;8.75;4.93;;;;;;;18.86;100.00;96983.59;5067321;28;20063;-50
2022/05/20 01:26:03;;;;;;;9.15;4.88;;;;;;;18.87;100.00;96976.41;5069194;28;20155;-50
2022/05/20 01:28:32;;;;;;;4.90;4.30;;;;;;;18.82;100.00;96978.78;5068503;28;20063;-50
2022/05/20 01:31:05;;;;;;;8.43;4.82;;;;;;;18.81;100.00;96985.16;5069026;28;20545;-47
2022/05/20 01:33:35;;;;;;;7.65;4.70;;;;;;;18.72;100.00;96987.09;5067437;28;20087;-46
2022/05/20 01:36:04;;;;;;;;;;;;;;;18.72;100.00;96992.44;5069126;28;20091;-51
2022/05/20 01:38:34;;;;;;;9.30;4.97;;;;;;;18.58;100.00;96995.88;5067090;28;20402;-46
2022/05/20 01:41:06;;;;;;;7.28;5.40;;;;;;;18.65;100.00;96992.31;5066871;28;20076;-48
2022/05/20 01:43:54;;;;;;;9.10;5.30;;;;;;;18.67;100.00;96987.59;5068031;28;20063;-47
2022/05/20 01:46:33;;;;;;;8.52;5.38;;;;;;;18.53;100.00;96985.75;5068311;28;20079;-45
2022/05/20 01:49:15;;;;;;;12.30;5.25;;;;;;;18.67;100.00;96984.94;5064877;28;20625;-48
2022/05/20 01:51:47;;;;;;;8.02;5.20;;;;;;;18.68;100.00;96980.41;5067992;28;20091;-46
2022/05/20 01:54:24;;;;;;;8.15;5.45;;;;;;;18.73;100.00;96975.41;5065006;28;20470;-49
2022/05/20 01:56:56;;;;;;;8.23;5.13;;;;;;;18.48;100.00;96975.59;5067027;28;20056;-48
2022/05/20 01:59:27;;;;;;;7.82;5.63;;;;;;;18.33;100.00;96972.06;5065886;28;20064;-47
2022/05/20 02:02:00;;;;;;;9.88;5.50;;;;;;;18.47;100.00;96970.44;5067391;28;20087;-47
2022/05/20 02:04:32;;;;;;;12.25;5.13;;;;;;;18.47;100.00;96970.44;5067365;28;20075;-45
2022/05/20 02:07:06;;;;;;;7.97;5.10;;;;;;;18.46;100.00;96958.94;5068850;28;20368;-45
2022/05/20 02:09:38;;;;;;;6.70;5.25;;;;;;;18.44;100.00;96958.28;5067242;28;20107;-47
2022/05/20 02:12:08;;;;;;;7.50;5.25;;;;;;;18.44;100.00;96949.44;5068978;28;20060;-45
2022/05/20 02:14:38;;;;;;;8.53;5.13;;;;;;;18.35;100.00;96954.03;5067264;28;20057;-46
2022/05/20 02:17:09;;;;;;;8.02;5.30;;;;;;;18.41;100.00;96939.97;5065944;28;21883;-45
2022/05/20 02:19:40;;;;;;;8.18;5.38;;;;;;;18.43;100.00;96939.75;5065221;28;20478;-48
2022/05/20 02:22:11;;;;;;;7.05;5.10;;;;;;;18.46;100.00;96937.56;5065995;28;20092;-48
2022/05/20 02:24:41;;;;;;;6.43;5.20;;;;;;;18.48;100.00;96946.22;5060897;28;22085;-48
2022/05/20 02:27:12;;;;;;;;;;;;;;;18.45;100.00;96943.09;5066964;28;20036;-46
2022/05/20 02:29:44;;;;;;;7.03;5.55;;;;;;;18.30;100.00;96944.91;5061292;28;19966;-45
2022/05/20 02:32:15;;;;;;;5.50;4.90;;;;;;;18.40;100.00;96943.63;5063719;28;20084;-46
2022/05/20 02:34:44;;;;;;;5.88;5.20;;;;;;;18.39;100.00;96933.13;5066054;28;20068;-46
2022/05/20 02:37:20;;;;;;;9.48;5.57;;;;;;;18.36;100.00;96936.16;5067097;28;20075;-47
2022/05/20 02:39:50;;;;;;;9.30;5.45;;;;;;;18.45;100.00;96933.25;5066784;28;20087;-50
2022/05/20 02:42:19;;;;;;;6.95;5.65;;;;;;;18.40;100.00;96940.13;5067048;28;20482;-50
2022/05/20 02:44:47;;;;;;;11.20;5.40;;;;;;;18.20;100.00;96951.34;5067173;28;20464;-47
2022/05/20 02:47:15;;;;;;;7.38;5.18;;;;;;;17.81;100.00;96943.47;5062384;28;20079;-47
2022/05/20 02:49:44;;;;;;;8.07;5.57;;;;;;;17.42;100.00;96944.38;5068217;28;20067;-46
2022/05/20 02:52:12;;;;;;;8.75;5.90;;;;;;;17.46;100.00;96960.84;5067728;28;20060;-45
2022/05/20 02:54:40;;;;;;;8.80;5.85;;;;;;;17.45;100.00;96956.53;5067085;28;20091;-46
2022/05/20 02:57:10;;;;;;;9.13;5.90;;;;;;;17.44;100.00;96954.84;5063125;28;20071;-46
2022/05/20 03:05:10;;;;;;;11.38;6.00;;;;;;;17.52;100.00;96942.31;5062598;28;20068;-44
2022/05/20 03:07:38;;;;;;;11.73;6.32;;;;;;;17.37;100.00;96943.22;5063963;28;20064;-48
2022/05/20 03:10:07;;;;;;;7.88;5.65;;;;;;;17.26;100.00;96941.78;5063770;28;20080;-45
2022/05/20 03:12:36;;;;;;;8.63;5.97;;;;;;;17.48;100.00;96938.34;5061702;28;20091;-48
2022/05/20 03:15:06;;;;;;;8.33;5.80;;;;;;;17.64;100.00;96944.56;5035811;28;20056;-51
2022/05/20 03:17:35;;;;;;;7.40;5.72;;;;;;;17.33;100.00;96943.56;5062251;28;20078;-50
2022/05/20 03:20:04;;;;;;;8.18;5.93;;;;;;;17.65;100.00;96947.06;5058043;28;20083;-48
2022/05/20 03:22:33;;;;;;;7.53;5.57;;;;;;;17.79;100.00;96945.50;5061909;28;20071;-47
2022/05/20 03:25:01;;;;;;;8.57;5.88;;;;;;;17.78;100.00;96941.97;5058993;28;20463;-49
2022/05/20 03:27:29;;;;;;;7.55;6.35;;;;;;;17.81;100.00;96942.63;5065193;28;20076;-45
2022/05/20 03:30:00;;;;;;;6.70;5.70;;;;;;;17.84;100.00;96940.44;5061832;28;20067;-46
2022/05/20 03:32:28;;;;;;;10.53;6.00;;;;;;;17.76;100.00;96949.34;5061686;28;20088;-43
2022/05/20 03:34:57;;;;;;;7.03;6.32;;;;;;;17.72;100.00;96948.00;5065202;28;20892;-44
2022/05/20 03:37:26;;;;;;;6.83;5.83;;;;;;;17.85;100.00;96952.75;5067362;28;20101;-43
2022/05/20 03:39:56;;;;;;;7.30;5.70;;;;;;;17.78;100.00;96954.50;5066077;28;20068;-46
2022/05/20 03:42:25;;;;;;;6.85;6.15;;;;;;;17.54;100.00;96956.28;5063836;28;20079;-44
2022/05/20 03:44:53;;;;;;;11.73;5.72;;;;;;;17.42;100.00;96949.69;5061086;28;20061;-44
2022/05/20 03:47:22;;;;;;;9.70;6.05;;;;;;;17.63;100.00;96959.72;5062046;28;20704;-45
2022/05/20 03:49:51;;;;;;;6.03;5.43;;;;;;;17.76;100.00;96954.69;5064980;28;20765;-43
2022/05/20 03:52:20;;;;;;;8.80;5.85;;;;;;;17.72;100.00;96956.00;5062628;28;20493;-43
2022/05/20 03:54:50;;;;;;;7.30;6.60;;;;;;;17.91;100.00;96952.06;5060876;28;20082;-45
2022/05/20 03:57:18;;;;;;;10.63;6.53;;;;;;;18.22;100.00;96959.97;5064078;28;20088;-46
2022/05/20 03:59:46;;;;;;;6.63;6.03;;;;;;;18.69;100.00;96952.69;5058912;28;20060;-46
2022/05/20 04:02:14;;;;;;;7.95;6.30;;;;;;;18.56;100.00;96950.66;5065876;28;20052;-51
2022/05/20 04:04:46;;;;;;;7.10;5.95;;;;;;;18.86;100.00;96956.06;5072020;28;20048;-45
2022/05/20 04:07:16;;;;;;;9.48;5.93;;;;;;;19.26;100.00;96962.72;5068757;28;20075;-45
2022/05/20 04:09:45;;;;;;;8.90;5.50;;;;;;;20.20;100.00;96949.34;5068672;28;20455;-47
2022/05/20 04:12:21;;;;;;;6.95;5.65;;;;;;;20.71;100.00;96951.81;5068091;28;20086;-49
2022/05/20 04:14:49;;;;;;;7.40;5.88;;;;;;;21.54;100.00;96946.44;5068502;28;20079;-44
2022/05/20 04:17:17;;;;;;;8.88;6.20;;;;;;;22.26;100.00;96936.88;5067995;28;20080;-46
2022/05/20 04:19:47;;;;;;;6.43;5.60;;;;;;;22.76;100.00;96934.56;5068237;28;20064;-47
2022/05/20 04:22:17;;;;;;;10.00;5.10;;;;;;;22.51;100.00;96937.94;5068143;28;20075;-46
2022/05/20 04:24:45;;;;;;;;;;;;;;;21.84;100.00;96943.44;5069523;28;20706;-47
2022/05/20 04:27:15;;;;;;;7.72;5.30;;;;;;;22.59;100.00;96938.75;5068378;28;20405;-47
2022/05/20 04:29:44;;;;;;;6.93;4.90;;;;;;;23.66;100.00;96945.44;5067884;28;20072;-47
2022/05/20 04:32:12;;;;;;;6.63;5.25;;;;;;;24.12;100.00;96930.88;5068479;28;20057;-46
2022/05/20 04:34:40;;;;;;;7.18;5.38;;;;;;;23.79;100.00;96933.81;5074515;28;20059;-50
2022/05/20 04:37:10;;;;;;;8.52;5.70;;;;;;;22.75;100.00;96936.44;5074757;28;20084;-45
2022/05/20 04:39:38;;;;;;;8.05;5.68;;;;;;;23.96;100.00;96939.53;5075217;28;20091;-48
2022/05/20 04:47:38;;;;;;;6.53;5.05;;;;;;;24.41;100.00;96942.09;5074206;28;20071;-47
2022/05/20 04:50:07;;;;;;;5.70;4.28;;;;;;;24.19;100.00;96939.78;5074423;28;20056;-46
2022/05/20 04:52:37;;;;;;;5.68;4.95;;;;;;;24.47;100.00;96947.44;5073785;28;20174;-49
2022/05/20 04:55:06;;;;;;;5.32;3.95;;;;;;;24.15;100.00;96949.31;5074282;28;20076;-50
2022/05/20 04:57:36;;;;;;;5.90;4.20;;;;;;;23.97;100.00;96951.94;5074535;28;20083;-47
2022/05/20 05:00:06;;;;;;;;;;;;;;;23.81;100.00;96955.97;5073792;28;20466;-50
2022/05/20 05:02:35;;;;;;;5.15;4.65;;;;;;;23.28;100.00;96948.13;5074325;28;20382;-49
2022/05/20 05:05:04;;;;;;;5.90;4.40;;;;;;;23.99;100.00;96947.16;5074479;28;20541;-48
2022/05/20 05:07:33;;;;;;;5.85;4.47;;;;;;;23.91;100.00;96950.91;5074782;28;20410;-48
2022/05/20 05:10:03;;;;;;;6.25;4.43;;;;;;;24.35;100.00;96952.69;5073894;28;20087;-47
2022/05/20 05:12:32;;;;;;;5.53;4.93;;;;;;;24.34;100.00;96951.03;5072819;28;20076;-49
2022/05/20 05:15:00;;;;;;;5.45;4.25;;;;;;;23.42;100.00;96955.91;5067404;28;20060;-47
2022/05/20 05:20:18;;;;;;;7.13;4.53;;;;;;;23.90;100.00;96955.50;5069683;28;20085;-48
2022/05/20 05:22:46;;;;;;;4.80;4.22;;;;;;;24.21;100.00;96943.06;5074373;28;20068;-50
2022/05/20 05:25:17;;;;;;;5.40;3.67;;;;;;;24.36;100.00;96950.81;5074727;28;20552;-45
2022/05/20 05:27:46;;;;;;;4.30;3.90;;;;;;;24.43;100.00;96942.69;5068805;28;20098;-52
2022/05/20 05:30:15;;;;;;;4.97;3.63;;;;;;;24.60;100.00;96941.09;5073590;28;20479;-51
2022/05/20 05:32:43;;;;;;;4.55;3.70;;;;;;;24.78;100.00;96941.13;5074027;28;20071;-45
2022/05/20 05:35:13;;;;;;;6.07;3.75;;;;;;;24.81;100.00;96939.84;5073887;28;20064;-48
2022/05/20 05:37:42;;;;;;;;;;;;;;;24.75;100.00;96936.19;5074341;28;20083;-48
2022/05/20 05:40:12;;;;;;;4.63;3.50;;;;;;;24.11;100.00;96942.72;5073923;28;19970;-47
2022/05/20 05:42:42;;;;;;;4.38;3.38;;;;;;;24.75;100.00;96941.59;5074385;28;20092;-47
2022/05/20 05:45:11;;;;;;;;;;;;;;;24.69;100.00;96930.84;5071019;28;20056;-48
2022/05/20 05:47:40;;;;;;;4.90;3.13;;;;;;;24.47;100.00;96938.53;5069811;28;20685;-46
2022/05/20 05:50:09;;;;;;;6.53;3.30;;;;;;;24.28;100.00;96932.22;5070651;28;20075;-48
2022/05/20 05:52:37;;;;;;;4.07;3.30;;;;;;;23.25;100.00;96940.47;5070837;28;20048;-49
2022/05/20 05:55:06;;;;;;;4.38;3.42;;;;;;;23.23;100.00;96946.06;5070661;28;20431;-49
2022/05/20 05:57:34;;;;;;;4.47;3.22;;;;;;;23.50;100.00;96943.25;5071164;28;20068;-46
2022/05/20 06:00:06;;;;;;;5.15;3.53;;;;;;;23.92;100.00;96941.81;5072816;28;20463;-46
2022/05/20 06:02:35;;;;;;;6.85;3.60;;;;;;;23.72;100.00;96941.94;5070397;28;20533;-46
2022/05/20 06:05:03;;;;;;;5.40;3.58;;;;;;;23.66;100.00;96945.44;5070607;28;20083;-45
2022/05/20 06:07:32;;;;;;;4.03;3.53;;;;;;;24.29;100.00;96939.25;5070524;28;20060;-48
2022/05/20 06:10:00;;;;;;;5.70;3.67;;;;;;;23.71;100.00;96950.22;5063647;28;20083;-50
2022/05/20 06:12:31;;;;;;;4.07;3.10;;;;;;;23.56;100.00;96953.16;5067747;28;20067;-50
2022/05/20 06:14:59;;;;;;;4.55;3.70;;;;;;;24.27;100.00;96947.56;5064133;28;20514;-45
2022/05/20 06:17:30;;;;;;;7.75;3.65;;;;;;;24.20;100.00;96952.19;5070317;28;20083;-47
2022/05/20 06:19:59;;;;;;;6.97;3.80;;;;;;;23.84;100.00;96955.53;5070507;28;20061;-45
2022/05/20 06:22:28;;;;;;;5.72;3.40;;;;;;;24.36;100.00;96946.25;5070150;28;20167;-46
2022/05/20 06:24:56;;;;;;;3.65;3.28;;;;;;;24.22;100.00;96942.00;5070188;28;20087;-45
2022/05/20 06:27:25;;;;;;;4.80;3.58;;;;;;;24.09;100.00;96956.41;5070607;28;20086;-45
2022/05/20 06:29:53;;;;;;;5.22;3.58;;;;;;;24.38;100.00;96944.16;5069897;28;20075;-51
2022/05/20 06:32:21;;;;;;;5.50;3.60;;;;;;;24.69;100.00;96944.34;5070299;28;20063;-50
2022/05/20 06:40:23;;;;;;;5.53;3.70;;;;;;;25.23;100.00;96930.09;5065473;28;20068;-46
2022/05/20 06:42:51;;;;;;;4.82;3.72;;;;;;;24.91;100.00;96931.25;5069021;28;20087;-49
2022/05/20 06:45:19;;;;;;;4.60;3.50;;;;;;;24.69;100.00;96937.06;5068122;28;20506;-45
2022/05/20 06:47:47;;;;;;;4.97;3.80;;;;;;;24.02;100.00;96942.16;5068671;28;20045;-51
2022/05/20 06:50:19;;;;;;;5.28;3.65;;;;;;;24.91;100.00;96931.25;5068636;28;20064;-47
2022/05/20 06:52:47;;;;;;;5.80;3.80;;;;;;;25.28;100.00;96932.09;5069496;28;20072;-50
2022/05/20 06:55:15;;;;;;;5.05;3.33;;;;;;;24.77;100.00;96935.94;5069649;28;20525;-47
2022/05/20 06:57:43;;;;;;;5.95;3.88;;;;;;;25.30;100.00;96932.72;5069765;28;20087;-45
2022/05/20 07:00:13;;;;;;;5.78;3.60;;;;;;;25.24;100.00;96933.63;5069639;28;20071;-47
2022/05/20 07:02:41;;;;;;;5.93;3.80;;;;;;;25.93;100.00;96934.19;5069143;28;20064;-49
2022/05/20 07:05:11;;;;;;;4.88;3.33;;;;;;;25.72;100.00;96939.00;5069305;28;20565;-47
2022/05/20 07:07:40;;;;;;;4.68;3.65;;;;;;;26.12;100.00;96932.22;5069151;28;20067;-45
2022/05/20 07:10:11;;;;;;;5.85;3.75;;;;;;;26.64;100.00;96925.16;5069619;28;20053;-46
2022/05/20 07:12:39;;;;;;;;;;;;;;;26.27;100.00;96925.31;5069882;28;20443;-49
2022/05/20 07:15:08;;;;;;;5.05;3.38;;;;;;;26.60;100.00;96923.97;5069344;28;19958;-44
2022/05/20 07:17:37;;;;;;;3.42;2.90;;;;;;;26.56;100.00;96921.97;5069197;28;20464;-47
2022/05/20 07:20:06;;;;;;;3.33;3.03;;;;;;;26.34;100.00;96924.41;5068652;28;20071;-45
2022/05/20 07:22:35;;;;;;;3.83;3.03;;;;;;;26.78;100.00;96923.03;5069161;28;20067;-46
2022/05/20 07:25:05;;;;;;;6.38;3.35;;;;;;;26.30;100.00;96924.03;5068893;28;20103;-45
2022/05/20 07:27:34;;;;;;;7.38;3.30;;;;;;;26.22;100.00;96927.91;5069381;28;20079;-46
2022/05/20 07:30:04;;;;;;;5.67;3.37;;;;;;;26.20;100.00;96923.78;5068587;28;20060;-44
2022/05/20 07:32:32;;;;;;;4.53;3.47;;;;;;;26.84;100.00;96915.84;5068668;28;20056;-46
2022/05/20 07:35:00;;;;;;;4.40;3.33;;;;;;;27.17;100.00;96921.47;5068722;28;20063;-45
2022/05/20 07:37:29;;;;;;;6.75;3.30;;;;;;;27.23;100.00;96927.00;5068615;28;20078;-45
2022/05/20 07:39:58;;;;;;;4.22;3.35;;;;;;;27.32;100.00;96929.06;5067892;28;20080;-45
2022/05/20 07:42:27;;;;;;;5.55;3.42;;;;;;;27.61;100.00;96912.84;5068664;28;20083;-45
2022/05/20 07:44:56;;;;;;;4.55;3.33;;;;;;;27.18;100.00;96912.28;5068726;28;20071;-45
2022/05/20 07:47:26;;;;;;;5.22;3.38;;;;;;;27.21;100.00;96913.69;5068620;28;20048;-46
2022/05/20 07:50:01;;;;;;;5.82;3.45;;;;;;;27.27;100.00;96920.84;5068622;28;20075;-48
2022/05/20 07:55:16;;;;;;;4.18;3.05;;;;;;;27.65;100.00;96922.16;5063795;28;20064;-49
2022/05/20 07:57:52;;;;;;;6.32;3.50;;;;;;;27.52;100.00;96922.44;5068243;28;20072;-50
2022/05/20 08:00:21;;;;;;;14.05;3.38;;;;;;;27.88;100.00;96923.97;5068730;28;20077;-52
2022/05/20 08:02:51;;;;;;;6.78;3.42;;;;;;;27.49;100.00;96922.91;5071825;28;20056;-46
2022/05/20 08:05:20;;;;;;;3.97;2.97;;;;;;;28.07;100.00;96911.00;5068794;28;20071;-46
2022/05/20 08:07:50;;;;;;;3.67;3.25;;;;;;;27.93;100.00;96907.78;5067680;28;20083;-46
2022/05/20 08:10:20;;;;;;;6.00;3.13;;;;;;;28.49;100.00;96903.31;5068409;28;20064;-45
2022/05/20 08:12:49;;;;;;;3.92;3.33;;;;;;;28.22;100.00;96903.13;5068254;28;20542;-45
2022/05/20 08:15:18;;;;;;;5.55;3.42;;;;;;;28.26;100.00;96904.28;5064973;28;21596;-47
2022/05/20 08:17:47;;;;;;;3.85;3.38;;;;;;;28.79;100.00;96900.22;5067970;28;20063;-48
2022/05/20 08:20:21;;;;;;;5.55;3.40;;;;;;;29.34;100.00;96893.09;5068213;28;20071;-45
2022/05/20 08:22:50;;;;;;;4.35;3.55;;;;;;;29.15;100.00;96894.47;5068083;28;20068;-45
2022/05/20 08:25:18;;;;;;;5.20;3.13;;;;;;;29.23;100.00;96896.75;5068143;28;20060;-46
2022/05/20 08:27:47;;;;;;;6.43;3.10;;;;;;;28.85;100.00;96895.69;5068609;28;20040;-47
2022/05/20 08:30:20;;;;;;;5.63;3.50;;;;;;;29.23;100.00;96885.91;5067739;28;20451;-45
2022/05/20 08:32:48;;;;;;;6.65;3.17;;;;;;;29.26;100.00;96886.22;5068160;28;20143;-50
2022/05/20 08:35:17;;;;;;;4.65;3.20;;;;;;;29.23;99.72;96885.91;5067117;28;20514;-48
2022/05/20 08:37:47;;;;;;;5.47;3.20;;;;;;;29.23;96.22;96878.56;5066758;28;20067;-51
2022/05/20 08:40:20;;;;;;;4.50;2.95;;;;;;;29.39;94.45;96874.13;5067792;28;20060;-51
2022/05/20 08:42:50;;;;;;;4.65;3.10;;;;;;;30.06;87.50;96872.91;5068453;28;20103;-47
2022/05/20 08:45:22;;;;;;;5.95;3.00;;;;;;;29.22;90.84;96867.97;5068208;28;20453;-46
2022/05/20 08:47:52;;;;;;;5.78;3.33;;;;;;;29.05;100.00;96868.84;5069780;28;20056;-46
2022/05/20 08:50:23;;;;;;;5.70;3.08;;;;;;;29.42;100.00;96859.19;5067943;28;20078;-47
2022/05/20 08:52:53;;;;;;;3.63;3.08;;;;;;;28.93;87.67;96856.41;5068115;28;20111;-50
2022/05/20 08:55:41;;;;;;;4.90;3.38;;;;;;;29.60;95.18;96848.03;5068369;28;20045;-47
2022/05/20 08:58:11;;;;;;;5.15;3.22;;;;;;;29.37;82.22;96853.72;5067071;28;20072;-48
2022/05/20 09:00:40;;;;;;;4.45;3.22;;;;;;;30.32;72.04;96844.06;5068456;28;20075;-49
2022/05/20 09:03:10;;;;;;;5.07;3.10;;;;;;;29.66;69.13;96854.31;5067631;28;20072;-49
2022/05/20 09:05:41;;;;;;;6.45;3.28;;;;;;;29.61;64.42;96855.09;5068395;28;20128;-45
2022/05/20 09:08:23;;;;;;;6.68;3.40;;;;;;;29.87;81.09;96842.59;5061513;28;20056;-45
2022/05/20 09:10:53;;;;;;;4.38;3.30;;;;;;;30.01;72.88;96843.78;5063277;28;20075;-48
2022/05/20 09:15:43;;;;;;;4.05;2.90;;;;;;;30.28;86.69;96848.34;5067592;28;20059;-48
2022/05/20 09:16:14;;;;;;;4.68;3.35;;;;;;;31.55;67.16;96847.38;5068148;28;20432;-54
2022/05/20 09:18:44;;;;;;;4.72;3.17;;;;;;;30.38;68.08;96847.63;5069270;28;20083;-45
2022/05/20 09:21:26;;;;;;;8.48;3.40;;;;;;;30.90;69.35;96844.97;5071083;28;20076;-48
2022/05/20 09:23:56;;;;;;;5.97;3.67;;;;;;;30.30;64.38;96842.66;5066210;28;20064;-48
2022/05/20 09:26:25;;;;;;;;;;;;;;;29.68;61.28;96839.41;5071677;28;20523;-45
2022/05/20 09:29:05;;;;;;;3.35;3.05;;;;;;;30.45;65.67;96829.97;5071112;28;19952;-51
2022/05/20 09:32:00;;;;;;;6.47;3.28;;;;;;;30.54;56.21;96829.50;5070882;28;20447;-48
2022/05/20 09:34:33;;;;;;;5.88;3.63;;;;;;;30.42;52.39;96833.25;5068887;28;20056;-46
2022/05/20 09:37:05;;;;;;;4.97;3.13;;;;;;;30.26;55.02;96826.06;5070815;28;20088;-47
2022/05/20 09:39:38;;;;;;;4.72;3.25;;;;;;;30.52;55.49;96824.28;5067651;28;20072;-46
2022/05/20 09:42:13;;;;;;;3.30;3.00;;;;;;;31.24;52.76;96821.94;5070621;28;20075;-48
2022/05/20 09:44:43;;;;;;;4.25;3.05;;;;;;;30.98;50.22;96814.50;5071301;28;20491;-48
2022/05/20 09:47:19;;;;;;;7.07;3.47;;;;;;;30.72;56.96;96820.88;5070914;28;20075;-45
2022/05/20 09:49:52;;;;;;;6.63;3.45;;;;;;;30.81;53.11;96813.88;5070459;28;20442;-48
2022/05/20 09:52:31;;;;;;;5.78;3.63;;;;;;;30.97;56.20;96810.13;5071045;28;20083;-46
2022/05/20 09:55:02;;;;;;;5.05;3.17;;;;;;;30.90;55.82;96806.00;5067476;28;20463;-45
2022/05/20 09:57:36;;;;;;;5.07;3.53;;;;;;;31.03;52.31;96805.50;5073740;28;20106;-47
2022/05/20 10:00:09;;;;;;;5.07;3.70;;;;;;;30.89;50.91;96805.19;5070726;28;20059;-50
2022/05/20 10:02:44;;;;;;;5.45;3.42;;;;;;;30.92;58.54;96788.31;5070848;28;20075;-45
2022/05/20 10:05:18;;;;;;;7.05;3.40;;;;;;;31.48;58.36;96784.94;5070694;28;20086;-49
2022/05/20 10:08:07;;;;;;;7.75;4.00;;;;;;;31.69;58.30;96785.78;5070567;28;20175;-45
2022/05/20 10:10:39;;;;;;;;;;;;;;;31.27;55.35;96788.69;5071017;28;20541;-47
2022/05/20 10:13:10;;;;;;;5.38;3.42;;;;;;;31.51;54.36;96791.78;5070378;28;20009;-48
2022/05/20 10:15:41;;;;;;;4.97;3.33;;;;;;;32.03;49.98;96777.91;5071245;28;20080;-46
2022/05/20 10:18:23;;;;;;;7.40;3.47;;;;;;;31.41;56.01;96785.19;5070721;28;20064;-48
2022/05/20 10:20:57;;;;;;;11.75;6.18;;;;;;;31.48;52.69;96779.50;5068174;28;20622;-46
2022/05/20 10:23:30;;;;;;;7.07;4.38;;;;;;;31.35;52.46;96775.41;5069090;28;20522;-44
2022/05/20 10:26:03;;;;;;;6.55;3.85;;;;;;;31.56;48.82;96784.44;5069158;28;20068;-48
2022/05/20 10:34:20;;;;;;;5.80;3.80;;;;;;;31.83;48.40;96758.78;4993580;28;20070;-46
2022/05/20 10:36:56;;;;;;;6.78;3.78;;;;;;;31.61;47.12;96750.88;5064554;28;20087;-46
2022/05/20 10:40:00;;;;;;;7.47;3.90;;;;;;;31.27;48.86;96758.72;5068986;28;20455;-50
2022/05/20 10:42:42;;;;;;;10.65;3.90;;;;;;;31.42;44.54;96756.88;5066721;28;21040;-48
2022/05/20 10:48:46;;;;;;;5.15;3.65;;;;;;;31.81;46.13;96741.88;5012876;28;20077;-47
2022/05/20 10:51:29;;;;;;;8.52;3.90;;;;;;;32.26;45.80;96738.28;5060804;28;20523;-46
2022/05/20 10:54:07;;;;;;;7.45;4.00;;;;;;;32.48;45.58;96737.16;5069621;28;20072;-48
2022/05/20 10:56:48;;;;;;;5.50;3.50;;;;;;;32.40;44.71;96727.63;5070001;28;20121;-47
2022/05/20 10:59:32;;;;;;;7.38;3.78;;;;;;;32.34;44.94;96724.06;5065471;28;20033;-47
2022/05/20 11:02:14;;;;;;;5.15;3.30;;;;;;;32.10;40.30;96726.59;5067733;28;20064;-46
2022/05/20 11:05:03;;;;;;;5.55;3.53;;;;;;;32.03;41.23;96722.50;5061280;28;20074;-50
2022/05/20 11:07:48;;;;;;;5.65;3.90;;;;;;;31.86;41.30;96722.78;5069231;28;20076;-46
2022/05/20 11:10:36;;;;;;;5.65;3.88;;;;;;;31.83;38.98;96713.25;5069077;28;20064;-48
2022/05/20 11:13:07;;;;;;;5.28;3.60;;;;;;;31.98;44.47;96701.53;5069309;28;20091;-45
2022/05/20 11:15:55;;;;;;;5.00;3.53;;;;;;;32.09;42.49;96702.31;5069829;28;20084;-49
2022/05/20 11:18:39;;;;;;;5.93;3.50;;;;;;;32.34;38.55;96707.69;5068749;28;20379;-50
2022/05/20 11:21:26;;;;;;;4.82;3.63;;;;;;;31.95;43.79;96707.53;5068098;28;20060;-51
2022/05/20 11:24:07;;;;;;;5.45;3.88;;;;;;;32.39;41.22;96701.41;5068879;28;20519;-49
2022/05/20 11:26:43;;;;;;;3.63;3.33;;;;;;;32.37;42.00;96693.50;5068166;28;20060;-47
2022/05/20 11:29:35;;;;;;;5.15;3.60;;;;;;;32.38;44.54;96686.97;5068480;28;20797;-46
2022/05/20 11:32:05;;;;;;;5.65;3.55;;;;;;;31.91;41.57;96685.44;5064935;28;20071;-48
2022/05/20 11:35:16;;;;;;;6.15;3.88;;;;;;;32.79;42.55;96684.03;5068854;28;20408;-48
2022/05/20 11:38:12;;;;;;;4.50;3.20;;;;;;;32.67;41.53;96678.13;4978456;28;20066;-47
2022/05/20 11:40:47;;;;;;;5.63;3.72;;;;;;;32.07;38.76;96667.13;5029153;28;20064;-46
2022/05/20 11:43:30;;;;;;;7.13;3.40;;;;;;;32.51;38.30;96671.09;5061686;28;20067;-45
2022/05/20 11:46:02;;;;;;;7.25;3.80;;;;;;;32.41;40.28;96668.38;5062232;28;20084;-47
2022/05/20 11:48:44;;;;;;;5.30;3.33;;;;;;;32.54;37.45;96665.06;5069157;28;20482;-53
2022/05/20 11:51:41;;;;;;;7.57;3.60;;;;;;;32.86;38.67;96659.16;5068250;28;21763;-46
2022/05/20 11:54:14;;;;;;;6.20;3.70;;;;;;;32.57;38.27;96664.50;5063751;28;20071;-49
2022/05/20 11:56:47;;;;;;;6.60;3.35;;;;;;;32.60;37.92;96653.03;5068579;28;20498;-48
2022/05/20 11:59:18;;;;;;;5.03;3.67;;;;;;;32.55;38.64;96653.84;5064864;28;20064;-48
2022/05/20 12:01:48;;;;;;;7.15;4.00;;;;;;;32.69;38.47;96656.81;5070929;28;20075;-48
2022/05/20 12:04:18;;;;;;;7.30;3.65;;;;;;;32.93;38.61;96654.19;5068456;28;20036;-45
2022/05/20 12:06:50;;;;;;;7.10;3.47;;;;;;;33.06;37.95;96641.84;5068844;28;20087;-45
2022/05/20 12:09:42;;;;;;;5.78;3.30;;;;;;;33.46;36.66;96642.63;5068172;28;20297;-49
2022/05/20 12:12:17;;;;;;;7.20;3.60;;;;;;;33.20;36.16;96637.34;5057832;28;20064;-48
2022/05/20 12:15:08;;;;;;;5.10;3.35;;;;;;;32.61;38.21;96638.28;5068406;28;20713;-46
2022/05/20 12:17:38;;;;;;;6.80;3.63;;;;;;;32.53;37.54;96630.69;5068493;28;20064;-45
2022/05/20 12:26:27;;;;;;;5.20;3.30;;;;;;;32.41;36.38;96624.69;5063945;28;20064;-51
2022/05/20 12:28:56;;;;;;;7.35;3.60;;;;;;;32.59;36.12;96616.72;5067809;28;20098;-45